Aérodrome :
LOGIN :

S'inscrire | Disclaimer

   EN    FR    IT 

 










Légende :    VFR   VFR Marginal   IFR   IFR Intensif   IFR Très Intensif
Visi : 
Plafond : 
>= 8 km
>= 3000ft
5 à 8 km
1000 à 3000 ft
1500m à 5 km
500 à 1000 ft
800 à 1500m
200 à 500 ft
< 800m
< 200 ft
Symboles :   Orages  Brouillard  Fortes neiges  Fortes précipitations  Vent > 20 kt
SIGMETs :   Divers  Orages  Givrage  Turbulence  Onde Orograph.  Cendres Volcan.







- Altitude de l'aérodrome : 726 ft
- Code IATA : DIJ
- Voir les cartes d'approche


LFSD - Dijon

DERNIER METAR :
  • 252000Z AUTO 36010KT 9000 -RA OVC009/// ///CB 03/01 Q1009

METARs EXPIRÉS :
  • 251930Z AUTO 36013KT 340V050 9999 RA OVC009/// ///CB 03/02 Q1009
  • 251900Z AUTO 36013KT 9999 -RA OVC011/// ///CB 03/02 Q1009
  • 251830Z AUTO 36014KT 340V050 9999 -RA BKN011/// BKN018/// OVC034/// ///CB 04/02 Q1008
  • 251800Z AUTO 36016KT 340V050 9999 -RA OVC011/// ///CB 05/03 Q1008
  • 251730Z AUTO 36013KT 330V040 9999 -RA OVC009/// ///TCU 06/04 Q1008

Prévision TAF périmée.
Pas de NOTAMs connus pour ce terrain.



MET'MAP, la Météo Aéronautique d'un coup d'oeil ! - Copyright ORBIFLY Décembre 2007 - Disclaimer

ORBIFLY MET'MAP TEAM :

Programmation & Développement : Alexandra Zaïnal
Conception & Développement : Baudouin d'Aumeries
Co-Programmation & Développement : Marc-Olivier Méhu
Soutien technique & logistique : Manuel Goepfert

Contact : metmap@orbifly.com




SOURCES & CREDITS :

   NOAA